Time;durP1;ratioP1;P1;durP2;ratioP2;P2;SDS_P1;SDS_P2;PMS_P1;PMS_P2;Temp;Humidity;BMP_temperature;BMP_pressure;BME280_temperature;BME280_humidity;BME280_pressure;Samples;Min_cycle;Max_cycle;Signal;HPM_P1;HPM_P2
2021/09/30 00:02:49;;;;;;;1.65;0.38;;;;;;;9.61;100.00;101678.06;6279351;28;20109;-76
2021/09/30 00:05:50;;;;;;;0.88;0.80;;;;;;;9.63;100.00;101671.00;6279111;28;20060;-78
2021/09/30 00:08:53;;;;;;;2.70;0.95;;;;;;;9.61;100.00;101676.28;6279313;28;20522;-77
2021/09/30 00:12:00;;;;;;;0.38;0.38;;;;;;;9.63;100.00;101687.59;6279565;28;20515;-79
2021/09/30 00:15:05;;;;;;;0.47;0.47;;;;;;;9.60;100.00;101678.97;6275607;28;20128;-78
2021/09/30 00:34:52;;;;;;;1.60;0.40;;;;;;;9.59;100.00;101691.25;6274841;28;20056;-74
2021/09/30 00:41:20;;;;;;;0.30;0.30;;;;;;;9.59;100.00;101691.25;6274707;28;20056;-76
2021/09/30 00:47:46;;;;;;;0.40;0.30;;;;;;;9.54;100.00;101708.06;6274620;28;20650;-77
2021/09/30 00:50:54;;;;;;;0.40;0.40;;;;;;;9.57;100.00;101705.31;6274834;28;20049;-78
2021/09/30 02:25:32;;;;;;;0.68;0.50;;;;;;;9.09;100.00;101776.81;6272188;28;20084;-77
2021/09/30 02:39:15;;;;;;;0.50;0.30;;;;;;;9.03;100.00;101803.22;6272138;28;20049;-78
2021/09/30 02:59:09;;;;;;;0.60;0.60;;;;;;;8.94;100.00;101801.72;6275593;28;20056;-77
2021/09/30 03:02:12;;;;;;;0.30;0.30;;;;;;;9.01;100.00;101807.66;6275166;28;20049;-78
2021/09/30 03:05:15;;;;;;;0.68;0.30;;;;;;;8.94;100.00;101812.22;6272770;28;20045;-77
2021/09/30 03:08:18;;;;;;;1.25;0.45;;;;;;;8.92;100.00;101814.03;6271708;28;20044;-78
2021/09/30 03:11:22;;;;;;;0.55;0.55;;;;;;;8.94;100.00;101825.31;6271878;28;20041;-78
2021/09/30 03:14:24;;;;;;;0.77;0.40;;;;;;;8.90;100.00;101823.69;6271759;28;20473;-77
2021/09/30 03:17:32;;;;;;;0.60;0.35;;;;;;;8.88;100.00;101831.59;6271790;28;20513;-78
2021/09/30 03:20:40;;;;;;;0.45;0.45;;;;;;;8.84;100.00;101829.13;6271980;28;20049;-78
2021/09/30 03:23:43;;;;;;;3.28;0.70;;;;;;;8.81;100.00;101831.81;6272151;28;20083;-78
2021/09/30 03:26:46;;;;;;;5.38;0.52;;;;;;;8.81;100.00;101837.94;6271971;28;20411;-78
2021/09/30 03:29:48;;;;;;;0.50;0.40;;;;;;;8.78;100.00;101832.78;6271889;28;20515;-78
2021/09/30 03:32:52;;;;;;;0.77;0.55;;;;;;;8.82;100.00;101842.28;6275457;28;20060;-78
2021/09/30 03:35:54;;;;;;;0.70;0.45;;;;;;;8.82;100.00;101844.03;6274951;28;20056;-77
2021/09/30 03:38:57;;;;;;;2.63;0.47;;;;;;;8.77;100.00;101859.91;6273937;28;20440;-78
2021/09/30 03:41:59;;;;;;;0.70;0.47;;;;;;;8.73;100.00;101858.25;6273656;28;20045;-78
2021/09/30 03:45:00;;;;;;;1.45;0.60;;;;;;;8.72;100.00;101868.75;6274323;28;20049;-77
2021/09/30 03:48:02;;;;;;;1.60;0.52;;;;;;;8.72;100.00;101871.38;6273262;28;20076;-77
2021/09/30 03:51:10;;;;;;;0.40;0.40;;;;;;;8.70;100.00;101862.72;6276431;28;20057;-78
2021/09/30 03:54:21;;;;;;;0.30;0.30;;;;;;;8.64;100.00;101866.38;6275918;28;20057;-77
2021/09/30 03:57:26;;;;;;;1.38;0.85;;;;;;;8.62;100.00;101871.63;6275610;28;20053;-78
2021/09/30 04:00:27;;;;;;;0.30;0.30;;;;;;;8.62;100.00;101869.00;6275949;28;20047;-77
2021/09/30 04:03:28;;;;;;;0.40;0.40;;;;;;;8.59;100.00;101876.97;6275471;28;20045;-77
2021/09/30 04:06:29;;;;;;;0.63;0.40;;;;;;;8.61;100.00;101879.53;6275992;28;20513;-78
2021/09/30 04:09:33;;;;;;;0.65;0.65;;;;;;;8.58;100.00;101882.25;6275508;28;20053;-78
2021/09/30 04:12:35;;;;;;;2.60;0.50;;;;;;;8.55;100.00;101880.56;6275310;28;20730;-78
2021/09/30 04:15:36;;;;;;;0.93;0.55;;;;;;;8.54;100.00;101886.72;6275438;28;20049;-79
2021/09/30 04:18:38;;;;;;;0.47;0.40;;;;;;;8.52;100.00;101887.66;6275562;28;20045;-78
2021/09/30 04:21:39;;;;;;;0.43;0.43;;;;;;;8.52;100.00;101887.66;6275404;28;20041;-77
2021/09/30 04:24:44;;;;;;;1.45;0.35;;;;;;;8.54;100.00;101889.34;6275104;28;20049;-78
2021/09/30 04:27:46;;;;;;;1.52;0.75;;;;;;;8.49;100.00;101893.81;6275477;28;20052;-77
2021/09/30 04:30:47;;;;;;;0.82;0.40;;;;;;;8.49;100.00;101896.44;6275045;28;20097;-77
2021/09/30 04:33:48;;;;;;;3.13;1.00;;;;;;;8.47;100.00;101898.25;6274942;28;20060;-76
2021/09/30 04:36:50;;;;;;;0.52;0.52;;;;;;;8.44;100.00;101893.09;6275078;28;20535;-78
2021/09/30 04:39:53;;;;;;;1.05;0.70;;;;;;;8.44;100.00;101900.94;6275216;28;20055;-78
2021/09/30 04:42:54;;;;;;;0.50;0.50;;;;;;;8.42;100.00;101900.13;6274684;28;20471;-78
2021/09/30 04:45:55;;;;;;;1.30;0.70;;;;;;;8.44;100.00;101910.56;6274825;28;20045;-78
2021/09/30 04:48:57;;;;;;;0.60;0.60;;;;;;;8.41;100.00;101911.53;6274815;28;20049;-78
2021/09/30 04:51:58;;;;;;;0.40;0.40;;;;;;;8.42;100.00;101921.09;6274792;28;20509;-77
2021/09/30 04:55:01;;;;;;;1.50;0.70;;;;;;;8.42;100.00;101920.22;6274411;28;20053;-77
2021/09/30 04:58:02;;;;;;;4.72;0.90;;;;;;;8.41;100.00;101916.75;6274410;28;20045;-77
2021/09/30 05:01:04;;;;;;;1.60;0.70;;;;;;;8.44;100.00;101919.28;6274362;28;20052;-79
2021/09/30 05:04:05;;;;;;;0.70;0.70;;;;;;;8.41;100.00;101924.63;6272966;28;20128;-79
2021/09/30 05:07:06;;;;;;;1.10;0.77;;;;;;;8.39;100.00;101927.25;6274623;28;20041;-77
2021/09/30 05:10:12;;;;;;;1.33;0.90;;;;;;;8.39;100.00;101927.25;6274063;28;20045;-79
2021/09/30 05:13:17;;;;;;;2.42;0.77;;;;;;;8.37;100.00;101926.44;6274456;28;20465;-77
2021/09/30 05:16:19;;;;;;;0.93;0.60;;;;;;;8.39;100.00;101936.88;6274007;28;20057;-78
2021/09/30 05:19:21;;;;;;;6.55;2.10;;;;;;;8.34;100.00;101934.34;6274195;28;20059;-78
2021/09/30 05:22:22;;;;;;;8.90;0.85;;;;;;;8.32;100.00;101944.00;6273965;28;20080;-78
2021/09/30 05:25:25;;;;;;;1.50;0.70;;;;;;;8.37;100.00;101951.78;6273748;28;20051;-77
2021/09/30 05:28:27;;;;;;;0.77;0.63;;;;;;;8.34;100.00;101949.19;6273975;28;20076;-78
2021/09/30 05:31:28;;;;;;;0.93;0.73;;;;;;;8.36;100.00;101950.94;6273847;28;20049;-77
2021/09/30 05:34:29;;;;;;;0.93;0.77;;;;;;;8.37;100.00;101959.63;6273585;28;20056;-78
2021/09/30 05:37:31;;;;;;;1.00;0.90;;;;;;;8.31;100.00;101962.34;6273646;28;20052;-77
2021/09/30 05:40:34;;;;;;;1.73;1.13;;;;;;;8.34;100.00;101954.44;6273896;28;20048;-78
2021/09/30 05:43:37;;;;;;;3.38;1.10;;;;;;;8.33;100.00;101957.97;6273478;28;20558;-77
2021/09/30 05:46:42;;;;;;;1.95;1.05;;;;;;;8.33;100.00;101956.19;6273797;28;20048;-78
2021/09/30 05:49:44;;;;;;;1.35;0.93;;;;;;;8.36;100.00;101956.16;6273350;28;20409;-81
2021/09/30 05:52:45;;;;;;;2.25;1.25;;;;;;;8.33;100.00;101945.72;6273549;28;20049;-80
2021/09/30 05:55:49;;;;;;;0.98;0.80;;;;;;;8.35;100.00;101956.16;6272909;28;20560;-79
2021/09/30 05:58:50;;;;;;;3.80;2.35;;;;;;;8.34;100.00;101957.91;6273274;28;20052;-78
2021/09/30 06:12:05;;;;;;;1.02;0.93;;;;;;;8.48;100.00;101969.84;6272132;28;20048;-77
2021/09/30 06:15:13;;;;;;;4.35;1.30;;;;;;;8.44;100.00;101971.66;6272315;28;20492;-80
2021/09/30 06:18:14;;;;;;;2.03;1.10;;;;;;;8.47;100.00;101973.38;6272624;28;20485;-80
2021/09/30 06:21:16;;;;;;;1.25;1.13;;;;;;;8.48;100.00;101985.56;6272567;28;20052;-77
2021/09/30 06:24:18;;;;;;;3.72;1.40;;;;;;;8.49;100.00;101982.88;6272511;28;20049;-79
2021/09/30 06:27:21;;;;;;;1.60;1.17;;;;;;;8.54;100.00;101983.66;6273038;28;20056;-79
2021/09/30 06:30:25;;;;;;;2.20;1.33;;;;;;;8.60;100.00;101991.34;6272609;28;20501;-80
2021/09/30 06:33:26;;;;;;;7.22;1.50;;;;;;;8.64;100.00;101993.00;6272518;28;20548;-79
2021/09/30 06:36:28;;;;;;;2.28;1.10;;;;;;;8.70;100.00;101996.38;6272291;28;20493;-80
2021/09/30 06:39:29;;;;;;;2.53;1.70;;;;;;;8.74;100.00;101991.00;6272496;28;20064;-80
2021/09/30 06:42:32;;;;;;;1.40;1.02;;;;;;;8.76;100.00;102001.44;6272936;28;20049;-80
2021/09/30 06:45:33;;;;;;;1.50;1.10;;;;;;;8.81;100.00;101992.59;6272580;28;20045;-78
2021/09/30 06:48:34;;;;;;;1.27;0.88;;;;;;;8.82;100.00;101990.81;6272824;28;20056;-80
2021/09/30 06:51:36;;;;;;;10.02;1.35;;;;;;;8.84;100.00;101991.63;6270993;28;20541;-80
2021/09/30 06:54:37;;;;;;;3.95;1.38;;;;;;;8.89;100.00;101993.22;6262036;28;20047;-79
2021/09/30 06:57:40;;;;;;;1.00;0.90;;;;;;;8.97;100.00;102002.66;6272110;28;20056;-79
2021/09/30 07:00:42;;;;;;;3.72;1.20;;;;;;;8.98;100.00;102007.84;6271947;28;20412;-79
2021/09/30 07:03:45;;;;;;;2.75;1.00;;;;;;;9.04;100.00;102004.22;6271793;28;20060;-79
2021/09/30 07:06:47;;;;;;;5.88;1.23;;;;;;;9.10;100.00;102012.78;6270845;28;20049;-79
2021/09/30 07:09:48;;;;;;;3.78;1.10;;;;;;;9.15;100.00;102015.28;6271813;28;20056;-79
2021/09/30 07:12:51;;;;;;;5.75;1.17;;;;;;;9.26;100.00;102026.31;6272273;28;20048;-79
2021/09/30 07:15:53;;;;;;;3.75;1.30;;;;;;;9.23;100.00;102015.06;6271858;28;20060;-80
2021/09/30 07:18:54;;;;;;;0.95;0.90;;;;;;;9.35;100.00;102020.81;6272089;28;20045;-79
2021/09/30 07:21:55;;;;;;;1.52;1.15;;;;;;;9.39;100.00;102037.34;6270986;28;20041;-78
2021/09/30 07:24:57;;;;;;;1.60;1.00;;;;;;;9.44;100.00;102029.34;6274864;28;20408;-78
2021/09/30 07:27:59;;;;;;;1.30;1.02;;;;;;;9.45;100.00;102034.56;6268549;28;20049;-77
2021/09/30 07:31:01;;;;;;;1.98;1.40;;;;;;;9.53;100.00;102029.94;6276702;28;20052;-79
2021/09/30 07:34:02;;;;;;;3.22;1.25;;;;;;;9.57;100.00;102033.34;6276524;28;20053;-78
2021/09/30 07:37:04;;;;;;;2.08;1.38;;;;;;;9.65;100.00;102037.47;6276590;28;20053;-79
2021/09/30 07:40:06;;;;;;;1.20;1.10;;;;;;;9.74;100.00;102046.00;6290460;22;20040;-79
2021/09/30 07:43:09;;;;;;;3.13;1.65;;;;;;;9.73;100.00;102045.13;6276371;28;20045;-77
2021/09/30 07:46:10;;;;;;;2.22;1.25;;;;;;;9.75;100.00;102040.69;6275975;28;20484;-78
2021/09/30 07:49:12;;;;;;;5.00;1.48;;;;;;;9.80;100.00;102049.28;6276320;28;20048;-77
2021/09/30 07:52:14;;;;;;;1.73;1.08;;;;;;;9.88;100.00;102052.56;6277179;28;20239;-77
2021/09/30 07:55:15;;;;;;;1.80;1.05;;;;;;;10.07;100.00;102049.38;6276333;28;20048;-78
2021/09/30 07:58:18;;;;;;;1.65;1.08;;;;;;;10.09;100.00;102060.72;6271706;28;20053;-77
2021/09/30 08:01:20;;;;;;;1.23;1.08;;;;;;;10.15;100.00;102063.16;6275710;28;20045;-79
2021/09/30 08:04:21;;;;;;;1.70;1.30;;;;;;;10.12;100.00;102066.72;6275802;28;20132;-78
2021/09/30 08:07:22;;;;;;;5.78;1.15;;;;;;;10.20;100.00;102065.63;6276022;28;20500;-78
2021/09/30 08:10:24;;;;;;;4.72;1.20;;;;;;;10.18;100.00;102088.47;6273819;28;20041;-79
2021/09/30 08:13:27;;;;;;;3.53;1.92;;;;;;;10.29;100.00;102076.75;6276112;28;20056;-78
2021/09/30 08:16:28;;;;;;;5.45;1.20;;;;;;;10.29;100.00;102082.00;6275955;28;20049;-78
2021/09/30 08:19:29;;;;;;;1.65;1.25;;;;;;;10.41;100.00;102086.03;6277766;28;20044;-78
2021/09/30 08:22:31;;;;;;;1.85;1.27;;;;;;;10.37;100.00;102087.03;6277321;28;20048;-78
2021/09/30 08:25:32;;;;;;;1.83;1.10;;;;;;;10.48;100.00;102074.41;6277776;28;20060;-78
2021/09/30 08:28:36;;;;;;;1.75;1.08;;;;;;;10.49;100.00;102094.53;6276454;28;20045;-79
2021/09/30 08:31:37;;;;;;;1.48;0.90;;;;;;;10.54;100.00;102095.25;6276224;28;20562;-77
2021/09/30 08:34:38;;;;;;;2.47;1.20;;;;;;;10.63;100.00;102099.38;6275671;28;20056;-79
2021/09/30 08:37:41;;;;;;;2.17;1.00;;;;;;;10.67;100.00;102093.06;6275125;28;20053;-78
2021/09/30 08:40:42;;;;;;;6.18;1.20;;;;;;;10.68;100.00;102094.81;6275422;28;20492;-79
2021/09/30 08:43:45;;;;;;;1.23;0.98;;;;;;;10.80;100.00;102101.44;6274868;28;20056;-79
2021/09/30 08:46:46;;;;;;;2.50;1.02;;;;;;;10.84;100.00;102098.66;6275128;28;20052;-78
2021/09/30 08:49:48;;;;;;;2.25;0.90;;;;;;;11.01;100.00;102102.50;6275328;28;20060;-79
2021/09/30 08:52:49;;;;;;;3.13;0.98;;;;;;;11.02;100.00;102091.91;6272983;28;20052;-78
2021/09/30 08:55:50;;;;;;;0.70;0.63;;;;;;;11.14;100.00;102094.16;6274623;28;20045;-79
2021/09/30 08:58:53;;;;;;;1.42;0.70;;;;;;;11.13;100.00;102094.22;6275511;28;20428;-77
2021/09/30 09:02:05;;;;;;;4.38;0.80;;;;;;;11.15;100.00;102093.22;6275372;28;20045;-78
2021/09/30 09:05:08;;;;;;;0.63;0.52;;;;;;;11.27;99.22;102097.22;6274723;28;20132;-78
2021/09/30 09:08:11;;;;;;;1.52;0.77;;;;;;;11.37;100.00;102088.09;6274785;28;20063;-79
2021/09/30 09:11:18;;;;;;;0.85;0.52;;;;;;;11.44;97.34;102088.72;6275049;28;20090;-79
2021/09/30 09:14:26;;;;;;;1.42;0.82;;;;;;;11.44;97.19;102096.63;6274463;28;20060;-77
2021/09/30 09:17:28;;;;;;;0.68;0.60;;;;;;;11.51;97.39;102098.13;6274476;28;20059;-77
2021/09/30 09:20:30;;;;;;;1.35;0.70;;;;;;;11.60;96.88;102091.69;6274402;28;20045;-77
2021/09/30 09:23:32;;;;;;;2.40;0.80;;;;;;;11.68;96.06;102092.25;6273908;28;20044;-77
2021/09/30 09:26:37;;;;;;;0.77;0.35;;;;;;;11.87;93.35;102097.75;6275078;28;20049;-78
2021/09/30 09:29:40;;;;;;;0.80;0.55;;;;;;;11.87;93.78;102098.59;6274306;28;20056;-77
2021/09/30 09:33:00;;;;;;;0.73;0.45;;;;;;;11.91;92.66;102092.31;6271811;28;20041;-78
2021/09/30 09:36:04;;;;;;;3.15;0.70;;;;;;;11.98;92.85;102094.69;6266347;28;20048;-78
2021/09/30 09:39:06;;;;;;;0.80;0.50;;;;;;;11.97;93.28;102100.91;6273837;28;20519;-78
2021/09/30 09:42:08;;;;;;;4.13;0.65;;;;;;;11.96;91.38;102104.44;6272639;28;20037;-78
2021/09/30 09:45:13;;;;;;;3.90;0.63;;;;;;;11.98;90.20;102100.81;6275296;28;20053;-79
2021/09/30 09:48:15;;;;;;;0.30;0.30;;;;;;;12.12;90.96;102097.66;6273910;28;20049;-79
2021/09/30 09:51:16;;;;;;;2.05;0.60;;;;;;;12.31;91.08;102095.19;6276634;28;20052;-81
2021/09/30 09:54:20;;;;;;;1.67;0.50;;;;;;;12.31;87.14;102088.16;6276849;28;20049;-82
2021/09/30 09:57:21;;;;;;;1.85;1.20;;;;;;;12.29;89.37;102103.16;6274330;28;20060;-80
2021/09/30 10:00:24;;;;;;;0.73;0.52;;;;;;;12.26;89.95;102095.34;6272895;28;20055;-79
2021/09/30 10:03:30;;;;;;;3.05;0.60;;;;;;;12.39;90.07;102093.97;6273746;28;20048;-79
2021/09/30 10:06:33;;;;;;;1.85;0.63;;;;;;;12.41;89.85;102093.91;6273582;28;20052;-79
2021/09/30 10:09:35;;;;;;;1.08;0.60;;;;;;;12.56;89.85;102101.22;6273773;28;20056;-78
2021/09/30 10:12:36;;;;;;;6.32;0.47;;;;;;;12.60;85.96;102104.59;6273461;28;20401;-78
2021/09/30 10:15:39;;;;;;;0.50;0.50;;;;;;;12.57;84.85;102100.28;6275156;28;20045;-79
2021/09/30 10:18:41;;;;;;;3.10;1.00;;;;;;;12.54;86.52;102105.72;6273591;28;20049;-79
2021/09/30 10:21:42;;;;;;;1.65;0.70;;;;;;;12.46;85.50;102106.94;6273131;28;20045;-79
2021/09/30 10:24:44;;;;;;;2.17;0.80;;;;;;;12.63;84.45;102099.22;6273637;28;20052;-79
2021/09/30 10:27:53;;;;;;;1.05;0.52;;;;;;;12.66;86.91;102099.91;6273584;28;20049;-79
2021/09/30 10:30:56;;;;;;;2.80;0.30;;;;;;;12.74;85.24;102107.53;6273463;28;20045;-80
2021/09/30 10:34:00;;;;;;;1.67;0.60;;;;;;;12.76;82.32;102097.75;6272990;28;20041;-77
2021/09/30 10:37:18;;;;;;;0.32;0.20;;;;;;;12.71;82.57;102099.72;6273855;28;20507;-80
2021/09/30 10:40:23;;;;;;;3.03;0.65;;;;;;;12.73;81.56;102094.41;6272879;28;20052;-79
2021/09/30 10:43:24;;;;;;;4.95;0.63;;;;;;;12.74;83.17;102099.63;6272755;28;20045;-79
2021/09/30 10:46:47;;;;;;;2.28;0.63;;;;;;;12.77;79.51;102102.13;6273415;28;20614;-80
2021/09/30 10:49:58;;;;;;;0.25;0.25;;;;;;;12.78;81.42;102101.22;6275523;28;20049;-79
2021/09/30 10:52:59;;;;;;;0.57;0.40;;;;;;;12.83;80.56;102099.25;6275718;28;20052;-79
2021/09/30 10:56:38;;;;;;;1.08;0.45;;;;;;;12.88;80.96;102104.31;6275496;28;20064;-80
2021/09/30 10:59:40;;;;;;;3.40;0.65;;;;;;;13.01;78.30;102100.25;6276735;28;20737;-80
2021/09/30 11:03:12;;;;;;;1.88;0.95;;;;;;;13.19;78.22;102102.13;6279520;28;20076;-77
2021/09/30 11:06:17;;;;;;;4.70;0.50;;;;;;;13.23;76.76;102112.59;6281120;28;20052;-80
2021/09/30 11:09:21;;;;;;;2.80;0.65;;;;;;;13.24;76.29;102107.25;6279671;28;20060;-78
2021/09/30 11:12:22;;;;;;;7.60;0.88;;;;;;;13.19;75.20;102104.75;6272943;28;20041;-79
2021/09/30 11:15:24;;;;;;;2.03;0.60;;;;;;;13.23;75.88;102109.97;6272134;28;20052;-77
2021/09/30 11:18:51;;;;;;;1.45;0.32;;;;;;;13.49;74.16;102101.78;6273644;28;20053;-79
2021/09/30 11:21:53;;;;;;;0.52;0.30;;;;;;;13.69;75.09;102104.38;6273031;28;20132;-78
2021/09/30 11:24:56;;;;;;;0.55;0.38;;;;;;;14.01;69.88;102101.22;6273476;28;20045;-79
2021/09/30 11:28:13;;;;;;;0.73;0.40;;;;;;;13.98;71.61;102104.84;6279514;28;20052;-77
2021/09/30 11:31:22;;;;;;;2.22;0.50;;;;;;;14.19;71.42;102105.63;6272683;28;20048;-79
2021/09/30 11:34:26;;;;;;;0.93;0.60;;;;;;;14.15;69.89;102104.06;6272404;28;20179;-79
2021/09/30 11:37:35;;;;;;;3.03;0.30;;;;;;;13.85;70.25;102109.84;6272199;28;20493;-78
2021/09/30 11:40:36;;;;;;;0.38;0.38;;;;;;;13.62;72.18;102099.41;6271570;28;20416;-77
2021/09/30 11:43:39;;;;;;;0.32;0.20;;;;;;;13.85;69.55;102101.03;6267964;28;20045;-78
2021/09/30 11:46:42;;;;;;;5.35;0.70;;;;;;;14.01;68.78;102102.06;6271013;28;20045;-78
2021/09/30 11:49:44;;;;;;;1.70;0.38;;;;;;;14.03;66.01;102104.63;6273160;28;20122;-80
2021/09/30 11:52:55;;;;;;;0.93;0.50;;;;;;;13.98;65.52;102110.13;6271286;28;20408;-79
2021/09/30 11:55:59;;;;;;;0.80;0.50;;;;;;;13.85;65.36;102111.59;6271989;28;20049;-79
2021/09/30 11:59:05;;;;;;;3.13;0.45;;;;;;;14.18;67.22;102112.72;6272070;28;20687;-78
2021/09/30 12:02:07;;;;;;;0.70;0.70;;;;;;;14.48;65.95;102109.56;6271563;28;20519;-78
2021/09/30 12:05:16;;;;;;;2.08;0.40;;;;;;;14.52;65.06;102118.22;6271570;28;20048;-78
2021/09/30 12:08:18;;;;;;;3.65;1.02;;;;;;;14.32;65.66;102120.00;6272439;28;20052;-79
2021/09/30 12:11:19;;;;;;;2.90;0.40;;;;;;;14.09;66.43;102118.44;6273385;28;20052;-79
2021/09/30 12:14:21;;;;;;;4.18;0.63;;;;;;;13.88;67.89;102103.53;6275845;28;20048;-77
2021/09/30 12:17:23;;;;;;;1.23;0.85;;;;;;;13.79;68.85;102106.59;6276151;28;20511;-78
2021/09/30 12:20:25;;;;;;;1.55;0.52;;;;;;;14.24;68.61;102121.28;6275757;28;20051;-78
2021/09/30 12:23:28;;;;;;;0.52;0.30;;;;;;;14.27;68.84;102110.59;6275965;28;20507;-78
2021/09/30 12:26:30;;;;;;;0.95;0.40;;;;;;;13.96;70.51;102109.34;6275918;28;20385;-78
2021/09/30 12:29:31;;;;;;;3.25;0.65;;;;;;;13.81;70.32;102117.97;6275158;28;20423;-78
2021/09/30 12:32:35;;;;;;;1.52;0.45;;;;;;;13.76;67.50;102112.88;6275524;28;20048;-78
2021/09/30 12:35:39;;;;;;;1.48;0.60;;;;;;;13.87;69.16;102110.63;6275326;28;20052;-77
2021/09/30 12:38:41;;;;;;;0.40;0.40;;;;;;;14.16;68.18;102103.97;6275464;28;20064;-79
2021/09/30 12:41:43;;;;;;;1.17;0.50;;;;;;;14.00;68.59;102113.56;6275849;28;20060;-77
2021/09/30 12:44:50;;;;;;;2.33;0.52;;;;;;;13.77;67.46;102104.03;6275241;28;20052;-78
2021/09/30 12:48:01;;;;;;;0.63;0.55;;;;;;;13.62;69.86;102110.84;6275447;28;20056;-79
2021/09/30 12:51:05;;;;;;;1.40;0.40;;;;;;;13.92;68.04;102095.41;6275455;28;20439;-79
2021/09/30 12:54:07;;;;;;;1.40;0.32;;;;;;;14.68;65.44;102085.66;6276024;28;20056;-77
2021/09/30 12:57:09;;;;;;;2.30;0.50;;;;;;;14.93;65.68;102092.38;6275141;28;20068;-78
2021/09/30 13:00:13;;;;;;;0.35;0.32;;;;;;;14.76;65.03;102097.66;6275374;28;20616;-78
2021/09/30 13:03:16;;;;;;;2.13;0.40;;;;;;;14.45;63.29;102094.69;6276726;28;20052;-79
2021/09/30 13:06:24;;;;;;;2.13;0.68;;;;;;;14.26;66.18;102085.94;6274930;28;20070;-79
2021/09/30 13:09:28;;;;;;;0.85;0.43;;;;;;;14.87;63.58;102088.25;6275298;28;20056;-78
2021/09/30 13:12:30;;;;;;;1.65;0.88;;;;;;;15.28;61.02;102087.09;6279949;28;20128;-79
2021/09/30 13:15:43;;;;;;;1.23;0.43;;;;;;;15.42;56.88;102072.19;6280112;28;20060;-78
2021/09/30 13:18:48;;;;;;;0.88;0.30;;;;;;;15.64;56.81;102079.91;6278027;28;20049;-78
2021/09/30 13:22:03;;;;;;;2.28;0.60;;;;;;;15.78;57.38;102073.84;6277202;28;20139;-77
2021/09/30 13:25:08;;;;;;;0.55;0.30;;;;;;;16.03;52.03;102069.84;6280261;28;20045;-80
2021/09/30 13:28:09;;;;;;;0.30;0.20;;;;;;;16.11;52.21;102071.16;6280024;28;20510;-78
2021/09/30 13:31:10;;;;;;;4.15;0.35;;;;;;;16.16;49.75;102079.69;6279038;28;20056;-79
2021/09/30 13:34:12;;;;;;;0.22;0.20;;;;;;;16.04;50.75;102072.44;6286850;28;20053;-80
2021/09/30 13:37:15;;;;;;;0.30;0.30;;;;;;;16.06;52.14;102073.19;6284421;28;20048;-79
2021/09/30 13:40:16;;;;;;;0.75;0.38;;;;;;;16.11;53.06;102063.19;6298274;23;20515;-78
2021/09/30 13:43:17;;;;;;;0.32;0.30;;;;;;;16.01;53.13;102066.44;6274524;28;20056;-79
2021/09/30 13:46:19;;;;;;;2.45;0.40;;;;;;;15.81;54.40;102072.84;6250903;28;20432;-79
2021/09/30 13:49:21;;;;;;;0.32;0.32;;;;;;;15.75;55.35;102063.41;6265684;28;20044;-77
2021/09/30 13:52:23;;;;;;;2.08;0.47;;;;;;;15.92;55.83;102054.53;6273257;28;20056;-80
2021/09/30 13:55:26;;;;;;;1.73;0.60;;;;;;;16.18;55.18;102061.06;6273720;28;20084;-79
2021/09/30 13:58:27;;;;;;;1.13;0.25;;;;;;;16.33;53.66;102065.50;6273467;28;20488;-79
2021/09/30 14:01:29;;;;;;;0.57;0.30;;;;;;;16.15;51.62;102055.94;6273978;28;20060;-76
2021/09/30 14:04:30;;;;;;;1.67;0.75;;;;;;;16.05;52.01;102063.53;6266079;28;20052;-77
2021/09/30 14:07:35;;;;;;;0.47;0.30;;;;;;;16.05;52.86;102060.88;6273403;28;20052;-78
2021/09/30 14:10:36;;;;;;;2.80;0.77;;;;;;;15.98;53.17;102060.34;6272998;28;20059;-79
2021/09/30 14:13:38;;;;;;;1.02;0.52;;;;;;;15.71;54.52;102054.78;6272636;28;20044;-78
2021/09/30 14:16:40;;;;;;;0.50;0.40;;;;;;;15.47;55.63;102051.59;6272722;28;20056;-77
2021/09/30 14:19:42;;;;;;;0.98;0.20;;;;;;;15.32;56.29;102048.91;6272909;28;20053;-79
2021/09/30 14:22:44;;;;;;;1.13;0.95;;;;;;;15.16;56.75;102047.06;6272805;28;20041;-77
2021/09/30 14:25:46;;;;;;;1.15;0.20;;;;;;;14.80;58.06;102047.13;6272501;28;20060;-77
2021/09/30 14:28:47;;;;;;;0.43;0.20;;;;;;;14.63;58.82;102049.78;6272443;28;20416;-77
2021/09/30 14:31:48;;;;;;;0.63;0.40;;;;;;;14.50;60.15;102046.88;6272405;28;20051;-77
2021/09/30 14:34:50;;;;;;;3.08;0.47;;;;;;;14.60;59.21;102042.84;6271731;28;20048;-77
2021/09/30 14:37:52;;;;;;;1.65;0.35;;;;;;;14.56;59.68;102032.50;6272549;28;20053;-78
2021/09/30 14:40:54;;;;;;;2.30;0.50;;;;;;;14.59;59.77;102037.66;6272993;28;20056;-76
2021/09/30 14:43:56;;;;;;;0.95;0.22;;;;;;;14.49;60.26;102034.59;6272408;28;20060;-77
2021/09/30 14:46:57;;;;;;;0.60;0.40;;;;;;;14.39;60.55;102035.91;6273310;28;20044;-77
2021/09/30 14:49:59;;;;;;;3.28;0.73;;;;;;;14.30;61.37;102039.88;6273031;28;20049;-76
2021/09/30 14:53:01;;;;;;;2.38;0.35;;;;;;;14.24;63.05;102037.53;6272904;28;20052;-76
2021/09/30 14:56:03;;;;;;;1.85;0.30;;;;;;;14.15;63.38;102037.97;6280135;28;20045;-77
2021/09/30 14:59:05;;;;;;;0.73;0.35;;;;;;;14.01;62.04;102033.34;6276766;28;20056;-77
2021/09/30 15:02:06;;;;;;;1.70;0.17;;;;;;;13.94;64.59;102032.78;6277525;28;20322;-77
2021/09/30 15:05:08;;;;;;;0.80;0.57;;;;;;;13.87;65.90;102031.34;6281071;28;20044;-77
2021/09/30 15:08:12;;;;;;;0.45;0.20;;;;;;;13.88;65.54;102033.03;6274054;28;20455;-77
2021/09/30 15:11:13;;;;;;;2.58;1.38;;;;;;;13.83;65.55;102034.19;6272019;28;20186;-77
2021/09/30 15:14:14;;;;;;;2.10;0.80;;;;;;;13.87;67.65;102027.84;6272049;28;20052;-77
2021/09/30 15:17:24;;;;;;;1.77;0.77;;;;;;;13.87;67.08;102027.84;6271890;28;20063;-77
2021/09/30 15:23:46;;;;;;;0.50;0.47;;;;;;;13.89;65.16;102026.81;6272048;28;20481;-78
2021/09/30 15:26:51;;;;;;;1.55;0.45;;;;;;;13.86;64.50;102026.13;6272976;28;20059;-77
2021/09/30 15:29:52;;;;;;;1.90;0.65;;;;;;;13.83;64.41;102026.28;6272384;28;20053;-78
2021/09/30 15:32:54;;;;;;;1.90;0.43;;;;;;;13.79;66.91;102030.84;6272748;28;20052;-77
2021/09/30 15:35:55;;;;;;;1.65;0.55;;;;;;;13.74;66.36;102030.19;6274141;28;20049;-78
2021/09/30 15:39:00;;;;;;;1.83;0.80;;;;;;;13.66;66.70;102022.59;6276031;28;20045;-77
2021/09/30 15:42:02;;;;;;;2.28;0.45;;;;;;;13.67;63.95;102015.53;6268451;28;20052;-77
2021/09/30 15:45:05;;;;;;;1.98;0.57;;;;;;;13.67;63.24;102018.19;6275478;28;20052;-77
2021/09/30 15:48:06;;;;;;;2.50;0.98;;;;;;;13.56;62.29;102018.69;6277816;28;20102;-77
2021/09/30 15:51:08;;;;;;;1.30;1.02;;;;;;;13.55;63.68;102019.63;6278467;28;20060;-78
2021/09/30 15:54:11;;;;;;;2.75;0.63;;;;;;;13.54;63.66;102014.41;6276016;28;20135;-77
2021/09/30 15:57:13;;;;;;;1.20;0.63;;;;;;;13.49;64.28;102006.69;6275852;28;20049;-77
2021/09/30 16:00:15;;;;;;;1.50;0.77;;;;;;;13.48;66.71;102012.03;6275840;28;20048;-77
2021/09/30 16:03:17;;;;;;;3.63;0.70;;;;;;;13.44;66.46;102017.47;6275757;28;20053;-77
2021/09/30 16:06:18;;;;;;;0.50;0.50;;;;;;;13.40;67.26;102018.53;6276010;28;20055;-77
2021/09/30 16:09:21;;;;;;;3.30;0.70;;;;;;;13.35;64.76;102006.44;6275614;28;20412;-78
2021/09/30 16:12:22;;;;;;;1.42;0.80;;;;;;;13.32;65.25;102006.59;6275749;28;20049;-77
2021/09/30 16:15:23;;;;;;;1.55;0.70;;;;;;;13.33;65.25;102009.16;6274974;28;20052;-77
2021/09/30 16:18:25;;;;;;;0.57;0.55;;;;;;;13.27;65.88;102004.16;6275612;28;20049;-77
2021/09/30 16:21:26;;;;;;;1.35;0.88;;;;;;;13.24;66.39;102004.28;6275443;28;20053;-78
2021/09/30 16:24:29;;;;;;;2.92;0.65;;;;;;;13.21;66.27;101992.03;6275068;28;20052;-77
2021/09/30 16:27:31;;;;;;;2.50;0.65;;;;;;;13.21;66.55;101999.09;6275391;28;20520;-77
2021/09/30 16:30:33;;;;;;;2.58;0.70;;;;;;;13.19;70.06;102000.97;6275139;28;20206;-73
2021/09/30 16:33:36;;;;;;;2.05;1.10;;;;;;;13.12;68.30;101999.50;6275468;28;20052;-77
2021/09/30 16:36:39;;;;;;;1.05;0.70;;;;;;;13.10;69.75;102004.00;6275663;28;20056;-77
2021/09/30 16:39:42;;;;;;;1.85;0.88;;;;;;;13.08;67.88;102001.44;6275366;28;20063;-77
2021/09/30 16:42:43;;;;;;;2.00;0.68;;;;;;;13.09;66.95;102010.22;6275296;28;20049;-77
2021/09/30 16:45:44;;;;;;;2.47;0.88;;;;;;;13.05;66.69;101996.28;6274593;28;20400;-77
2021/09/30 16:48:46;;;;;;;1.35;0.45;;;;;;;13.07;64.78;102001.50;6274622;28;20049;-76